Jacksonville/Craig Field, Florida
Current Conditions -  °F | °C
As of 10:53 AM on Monday 26 Jan 2015 (Local Time) from KCRG Reporting Station
Haze Haze  
Wind Chill: 56°   Ceiling: Unl
Heat Index: 56°   Visibility: 3mi
Dew Point: 42°   Wind: 17mph
Humidity: 60%   Direction: 280°W
Pressure: 29.83"   Gusts: 29mph
Location:  30.33°N, 81.52°W
Report Text: KCRG 261553Z 28015G25KT 3SM HZ SCT035 13/06 A2983 RMK AO2 SLP102 T01330056
Loading
Personal Weather Stations






























Interactive Weather Map New forecast layout! Learn more

10-Day Weather Forecast

Advertisements
Track Severe Weather on mobile